createdAt,value
2023-06-04T00:00:28.100Z,15.40
2023-06-04T00:02:57.261Z,15.37
2023-06-04T00:05:26.534Z,15.33
2023-06-04T00:07:55.510Z,15.32
2023-06-04T00:10:24.463Z,15.27
2023-06-04T00:12:53.410Z,15.27
2023-06-04T00:15:23.773Z,15.22
2023-06-04T00:17:52.910Z,15.17
2023-06-04T00:20:21.820Z,15.15
2023-06-04T00:22:50.452Z,15.11
2023-06-04T00:25:19.017Z,15.07
2023-06-04T00:27:47.940Z,15.02
2023-06-04T00:30:17.852Z,14.97
2023-06-04T00:32:48.166Z,14.90
2023-06-04T00:35:18.060Z,14.88
2023-06-04T00:37:46.514Z,14.84
2023-06-04T00:40:16.415Z,14.81
2023-06-04T00:42:46.789Z,14.77
2023-06-04T00:45:16.979Z,14.70
2023-06-04T00:47:47.355Z,14.65
2023-06-04T00:50:16.820Z,14.60
2023-06-04T00:52:45.840Z,14.59
2023-06-04T00:55:15.042Z,14.54
2023-06-04T00:57:44.629Z,14.49
2023-06-04T01:00:15.204Z,14.45
2023-06-04T01:02:52.285Z,14.41
2023-06-04T01:05:34.472Z,14.38
2023-06-04T01:08:04.156Z,14.37
2023-06-04T01:10:33.185Z,14.31
2023-06-04T01:13:02.199Z,14.28
2023-06-04T01:15:31.531Z,14.25
2023-06-04T01:18:06.809Z,14.22
2023-06-04T01:20:41.605Z,14.18
2023-06-04T01:24:00.471Z,14.14
2023-06-04T01:26:30.945Z,14.10
2023-06-04T01:29:02.036Z,14.05
2023-06-04T01:31:34.021Z,14.01
2023-06-04T01:34:04.297Z,14.01
2023-06-04T01:36:33.602Z,14.00
2023-06-04T01:39:02.365Z,13.96
2023-06-04T01:41:31.155Z,13.93
2023-06-04T01:43:59.939Z,13.91
2023-06-04T01:46:29.552Z,13.87
2023-06-04T01:48:58.112Z,13.83
2023-06-04T01:51:28.020Z,13.77
2023-06-04T01:53:57.003Z,13.71
2023-06-04T01:56:27.382Z,13.70
2023-06-04T01:58:57.224Z,13.67
2023-06-04T02:01:28.285Z,13.67
2023-06-04T02:03:57.369Z,13.59
2023-06-04T02:06:31.099Z,13.55
2023-06-04T02:09:01.679Z,13.51
2023-06-04T02:11:30.790Z,13.50
2023-06-04T02:14:00.234Z,13.46
2023-06-04T02:16:29.469Z,13.40
2023-06-04T02:19:00.207Z,13.36
2023-06-04T02:21:30.036Z,13.32
2023-06-04T02:23:58.587Z,13.30
2023-06-04T02:26:27.949Z,13.27
2023-06-04T02:28:56.461Z,13.27
2023-06-04T02:31:24.912Z,13.24
2023-06-04T02:33:53.880Z,13.20
2023-06-04T02:36:22.857Z,13.16
2023-06-04T02:38:53.693Z,13.16
2023-06-04T02:41:22.461Z,13.15
2023-06-04T02:43:51.040Z,13.13
2023-06-04T02:46:19.878Z,13.10
2023-06-04T02:48:49.098Z,13.06
2023-06-04T02:51:18.594Z,13.02
2023-06-04T02:53:47.452Z,12.95
2023-06-04T02:56:17.843Z,12.92
2023-06-04T02:58:52.615Z,12.91
2023-06-04T03:01:22.282Z,12.88
2023-06-04T03:03:51.704Z,12.85
2023-06-04T03:06:22.096Z,12.79
2023-06-04T03:08:53.207Z,12.76
2023-06-04T03:11:24.053Z,12.73
2023-06-04T03:13:54.247Z,12.71
2023-06-04T03:16:22.862Z,12.69
2023-06-04T03:18:52.478Z,12.70
2023-06-04T03:21:21.115Z,12.66
2023-06-04T03:23:51.792Z,12.65
2023-06-04T03:26:20.400Z,12.65
2023-06-04T03:28:51.464Z,12.61
2023-06-04T03:31:20.752Z,12.59
2023-06-04T03:33:49.308Z,12.54
2023-06-04T03:36:18.466Z,12.49
2023-06-04T03:38:48.901Z,12.47
2023-06-04T03:41:17.574Z,12.46
2023-06-04T03:43:47.474Z,12.44
2023-06-04T03:46:17.973Z,12.44
2023-06-04T03:48:46.518Z,12.41
2023-06-04T03:51:14.948Z,12.35
2023-06-04T03:53:44.396Z,12.32
2023-06-04T03:56:14.764Z,12.34
2023-06-04T03:58:43.651Z,12.34
2023-06-04T04:01:12.618Z,12.31
2023-06-04T04:03:44.316Z,12.28
2023-06-04T04:06:13.096Z,12.27
2023-06-04T04:08:45.044Z,12.27
2023-06-04T04:11:14.735Z,12.26
2023-06-04T04:13:44.067Z,12.26
2023-06-04T04:16:13.241Z,12.26
2023-06-04T04:18:45.373Z,12.23
2023-06-04T04:21:14.053Z,12.21
2023-06-04T04:23:42.921Z,12.18
2023-06-04T04:26:13.236Z,12.14
2023-06-04T04:28:42.144Z,12.09
2023-06-04T04:31:11.135Z,12.06
2023-06-04T04:33:40.684Z,12.06
2023-06-04T04:36:13.794Z,12.07
2023-06-04T04:38:42.909Z,12.04
2023-06-04T04:41:12.818Z,12.06
2023-06-04T04:43:42.046Z,12.07
2023-06-04T04:46:11.768Z,12.10
2023-06-04T04:48:41.874Z,12.11
2023-06-04T04:51:12.056Z,12.15
2023-06-04T04:53:41.040Z,12.19
2023-06-04T04:56:09.535Z,12.23
2023-06-04T04:58:38.056Z,12.25
2023-06-04T05:01:06.704Z,12.29
2023-06-04T05:03:36.389Z,12.32
2023-06-04T05:06:05.646Z,12.40
2023-06-04T05:08:35.809Z,12.46
2023-06-04T05:11:04.347Z,12.49
2023-06-04T05:13:33.371Z,12.54
2023-06-04T05:16:07.850Z,12.60
2023-06-04T05:18:42.965Z,12.65
2023-06-04T05:21:13.308Z,12.68
2023-06-04T05:23:51.239Z,12.70
2023-06-04T05:26:25.225Z,12.74
2023-06-04T05:28:56.677Z,12.79
2023-06-04T05:31:34.531Z,12.83
2023-06-04T05:34:05.638Z,12.86
2023-06-04T05:36:37.575Z,12.92
2023-06-04T05:39:20.000Z,12.97
2023-06-04T05:41:49.446Z,13.01
2023-06-04T05:44:18.232Z,13.05
2023-06-04T05:46:55.482Z,13.09
2023-06-04T05:49:26.332Z,13.15
2023-06-04T05:51:56.401Z,13.18
2023-06-04T05:54:27.024Z,13.23
2023-06-04T05:56:57.116Z,13.28
2023-06-04T05:59:26.209Z,13.34
2023-06-04T06:01:57.112Z,13.38
2023-06-04T06:04:26.448Z,13.41
2023-06-04T06:06:54.965Z,13.48
2023-06-04T06:09:23.914Z,13.52
2023-06-04T06:11:54.392Z,13.58
2023-06-04T06:14:24.537Z,13.64
2023-06-04T06:16:54.175Z,13.68
2023-06-04T06:19:22.751Z,13.72
2023-06-04T06:21:51.937Z,13.78
2023-06-04T06:24:20.557Z,13.84
2023-06-04T06:26:49.614Z,13.88
2023-06-04T06:29:22.037Z,13.94
2023-06-04T06:31:51.285Z,14.00
2023-06-04T06:34:21.191Z,14.05
2023-06-04T06:36:50.982Z,14.11
2023-06-04T06:39:21.619Z,14.16
2023-06-04T06:41:57.491Z,14.21
2023-06-04T06:44:29.896Z,14.27
2023-06-04T06:46:58.536Z,14.31
2023-06-04T06:49:27.082Z,14.37
2023-06-04T06:51:56.227Z,14.43
2023-06-04T06:54:24.729Z,14.49
2023-06-04T06:56:55.275Z,14.55
2023-06-04T06:59:23.730Z,14.60
2023-06-04T07:01:54.521Z,14.67
2023-06-04T07:04:23.412Z,14.70
2023-06-04T07:06:53.022Z,14.78
2023-06-04T07:09:21.458Z,14.81
2023-06-04T07:11:50.254Z,14.87
2023-06-04T07:14:19.292Z,14.93
2023-06-04T07:16:49.074Z,15.01
2023-06-04T07:19:19.047Z,15.06
2023-06-04T07:21:48.049Z,15.15
2023-06-04T07:24:17.023Z,15.19
2023-06-04T07:26:46.436Z,15.28
2023-06-04T07:29:15.037Z,15.33
2023-06-04T07:31:43.956Z,15.41
2023-06-04T07:34:12.981Z,15.50
2023-06-04T07:36:42.964Z,15.57
2023-06-04T07:39:11.773Z,15.62
2023-06-04T07:41:40.237Z,15.66
2023-06-04T07:44:08.716Z,15.72
2023-06-04T07:46:37.813Z,15.81
2023-06-04T07:49:06.363Z,15.90
2023-06-04T07:51:35.969Z,15.98
2023-06-04T07:54:05.937Z,16.06
2023-06-04T07:56:34.367Z,16.11
2023-06-04T07:59:03.104Z,16.21
2023-06-04T08:01:31.794Z,16.32
2023-06-04T08:04:01.401Z,16.41
2023-06-04T08:06:30.171Z,16.48
2023-06-04T08:08:58.699Z,16.54
2023-06-04T08:11:28.683Z,16.63
2023-06-04T08:13:57.792Z,16.68
2023-06-04T08:16:26.327Z,16.75
2023-06-04T08:18:54.917Z,16.84
2023-06-04T08:21:29.151Z,16.94
2023-06-04T08:23:58.407Z,16.96
2023-06-04T08:26:29.089Z,17.03
2023-06-04T08:28:58.793Z,17.09
2023-06-04T08:31:27.674Z,17.10
2023-06-04T08:33:56.587Z,17.16
2023-06-04T08:36:25.772Z,17.25
2023-06-04T08:38:57.250Z,17.34
2023-06-04T08:41:32.240Z,17.37
2023-06-04T08:44:03.837Z,17.42
2023-06-04T08:46:40.563Z,17.55
2023-06-04T08:49:10.492Z,17.70
2023-06-04T08:51:40.110Z,17.76
2023-06-04T08:54:10.820Z,17.85
2023-06-04T08:56:40.673Z,17.94
2023-06-04T08:59:12.321Z,18.03
2023-06-04T09:01:42.875Z,18.11
2023-06-04T09:04:13.273Z,18.15
2023-06-04T09:06:45.024Z,18.17
2023-06-04T09:09:18.613Z,18.20
2023-06-04T09:11:54.425Z,18.26
2023-06-04T09:14:23.598Z,18.34
2023-06-04T09:16:56.165Z,18.38
2023-06-04T09:19:25.051Z,18.43
2023-06-04T09:21:59.756Z,18.50
2023-06-04T09:24:42.322Z,18.54
2023-06-04T09:27:17.293Z,18.64
2023-06-04T09:29:53.314Z,18.72
2023-06-04T09:32:25.250Z,18.74
2023-06-04T09:34:54.138Z,18.78
2023-06-04T09:37:24.192Z,18.84
2023-06-04T09:39:56.472Z,18.95
2023-06-04T09:42:26.962Z,18.94
2023-06-04T09:44:55.553Z,18.96
2023-06-04T09:47:24.606Z,19.05
2023-06-04T09:49:53.628Z,19.14
2023-06-04T09:52:23.266Z,19.20
2023-06-04T09:54:51.668Z,19.19
2023-06-04T09:57:22.241Z,19.21
2023-06-04T09:59:52.940Z,19.26
2023-06-04T10:02:24.123Z,19.33
2023-06-04T10:04:57.718Z,19.47
2023-06-04T10:07:27.913Z,19.54
2023-06-04T10:09:58.121Z,19.69
2023-06-04T10:12:33.322Z,19.75
2023-06-04T10:15:10.925Z,19.76
2023-06-04T10:17:40.568Z,19.88
2023-06-04T10:20:12.337Z,19.95
2023-06-04T10:22:41.836Z,19.94
2023-06-04T10:25:12.198Z,20.08
2023-06-04T10:27:41.944Z,20.17
2023-06-04T10:30:13.374Z,20.28
2023-06-04T10:32:43.108Z,20.34
2023-06-04T10:35:12.713Z,20.27
2023-06-04T10:37:41.674Z,20.29
2023-06-04T10:40:12.503Z,20.43
2023-06-04T10:42:43.901Z,20.51
2023-06-04T10:45:14.463Z,20.54
2023-06-04T10:47:44.963Z,20.63
2023-06-04T10:50:16.814Z,20.71
2023-06-04T10:52:54.943Z,20.75
2023-06-04T10:55:23.837Z,20.79
2023-06-04T10:57:57.150Z,20.82
2023-06-04T11:00:37.956Z,20.86
2023-06-04T11:03:10.007Z,20.94
2023-06-04T11:05:40.522Z,21.00
2023-06-04T11:08:10.899Z,20.98
2023-06-04T11:10:43.270Z,21.02
2023-06-04T11:13:12.209Z,21.08
2023-06-04T11:15:43.662Z,21.15
2023-06-04T11:18:17.678Z,21.25
2023-06-04T11:20:48.994Z,21.27
2023-06-04T11:23:19.030Z,21.33
2023-06-04T11:25:47.918Z,21.32
2023-06-04T11:28:20.004Z,21.37
2023-06-04T11:31:00.468Z,21.37
2023-06-04T11:33:29.838Z,21.42
2023-06-04T11:35:58.826Z,21.42
2023-06-04T11:38:27.360Z,21.48
2023-06-04T11:41:02.153Z,21.48
2023-06-04T11:43:31.362Z,21.53
2023-06-04T11:46:01.767Z,21.57
2023-06-04T11:48:33.155Z,21.62
2023-06-04T11:51:09.585Z,21.69
2023-06-04T11:53:39.697Z,21.74
2023-06-04T11:56:08.716Z,21.75
2023-06-04T11:58:38.494Z,21.82
2023-06-04T12:01:09.261Z,21.86
2023-06-04T12:03:39.788Z,21.87
2023-06-04T12:06:17.628Z,21.90
2023-06-04T12:08:51.727Z,21.97
2023-06-04T12:11:33.390Z,22.07
2023-06-04T12:14:06.820Z,22.15
2023-06-04T12:16:37.370Z,22.22
2023-06-04T12:19:11.609Z,22.24
2023-06-04T12:21:43.514Z,22.23
2023-06-04T12:24:14.161Z,22.23
2023-06-04T12:26:47.374Z,22.25
2023-06-04T12:29:21.181Z,22.26
2023-06-04T12:31:51.476Z,22.31
2023-06-04T12:34:19.989Z,22.39
2023-06-04T12:36:48.978Z,22.43
2023-06-04T12:39:18.066Z,22.45
2023-06-04T12:41:49.409Z,22.47
2023-06-04T12:44:22.022Z,22.47
2023-06-04T12:46:52.523Z,22.49
2023-06-04T12:49:22.632Z,22.54
2023-06-04T12:51:52.621Z,22.51
2023-06-04T12:54:24.280Z,22.53
2023-06-04T12:56:53.000Z,22.56
2023-06-04T12:59:21.472Z,22.59
2023-06-04T13:01:52.012Z,22.58
2023-06-04T13:04:20.662Z,22.62
2023-06-04T13:06:49.267Z,22.72
2023-06-04T13:09:19.729Z,22.74
2023-06-04T13:11:48.904Z,22.82
2023-06-04T13:14:18.145Z,22.88
2023-06-04T13:16:47.263Z,22.95
2023-06-04T13:19:17.972Z,22.98
2023-06-04T13:21:46.363Z,23.01
2023-06-04T13:24:15.617Z,23.00
2023-06-04T13:26:44.271Z,23.08
2023-06-04T13:29:13.388Z,23.17
2023-06-04T13:31:42.535Z,23.18
2023-06-04T13:34:26.508Z,23.22
2023-06-04T13:36:57.371Z,23.29
2023-06-04T13:39:25.948Z,23.37
2023-06-04T13:41:54.771Z,23.49
2023-06-04T13:44:27.448Z,23.58
2023-06-04T13:46:56.552Z,23.56
2023-06-04T13:49:25.003Z,23.63
2023-06-04T13:51:53.498Z,23.73
2023-06-04T13:54:23.962Z,23.72
2023-06-04T13:56:52.946Z,23.75
2023-06-04T13:59:21.598Z,23.87
2023-06-04T14:01:50.156Z,23.81
2023-06-04T14:04:19.362Z,23.86
2023-06-04T14:06:48.335Z,23.94
2023-06-04T14:09:17.168Z,24.01
2023-06-04T14:11:50.742Z,24.09
2023-06-04T14:14:20.285Z,24.14
2023-06-04T14:16:49.333Z,24.14
2023-06-04T14:19:18.384Z,24.16
2023-06-04T14:21:47.052Z,24.21
2023-06-04T14:24:15.625Z,24.34
2023-06-04T14:26:44.119Z,24.40
2023-06-04T14:29:14.199Z,24.50
2023-06-04T14:31:42.930Z,24.61
2023-06-04T14:34:12.088Z,24.69
2023-06-04T14:36:40.666Z,24.79
2023-06-04T14:39:09.346Z,24.83
2023-06-04T14:41:37.829Z,24.88
2023-06-04T14:44:06.343Z,24.98
2023-06-04T14:46:36.182Z,25.15
2023-06-04T14:49:05.230Z,25.26
2023-06-04T14:51:33.669Z,25.35
2023-06-04T14:54:02.199Z,25.39
2023-06-04T14:56:31.597Z,25.41
2023-06-04T14:59:01.864Z,25.46
2023-06-04T15:01:30.433Z,25.58
2023-06-04T15:04:00.326Z,25.64
2023-06-04T15:06:29.282Z,25.71
2023-06-04T15:08:58.180Z,25.78
2023-06-04T15:11:26.717Z,25.84
2023-06-04T15:13:56.141Z,25.91
2023-06-04T15:16:26.394Z,25.97
2023-06-04T15:18:56.743Z,26.02
2023-06-04T15:21:26.624Z,26.01
2023-06-04T15:23:55.902Z,26.00
2023-06-04T15:26:26.517Z,25.96
2023-06-04T15:28:55.501Z,26.05
2023-06-04T15:31:24.068Z,26.08
2023-06-04T15:33:52.529Z,26.03
2023-06-04T15:36:20.991Z,26.11
2023-06-04T15:38:52.433Z,26.16
2023-06-04T15:41:22.446Z,26.17
2023-06-04T15:43:54.178Z,26.21
2023-06-04T15:46:26.423Z,26.23
2023-06-04T15:48:55.133Z,26.22
2023-06-04T15:51:23.578Z,26.21
2023-06-04T15:53:54.027Z,26.24
2023-06-04T15:56:23.196Z,26.25
2023-06-04T15:58:51.683Z,26.18
2023-06-04T16:01:20.142Z,26.12
2023-06-04T16:03:49.862Z,26.01
2023-06-04T16:06:19.228Z,25.97
2023-06-04T16:08:47.653Z,25.90
2023-06-04T16:11:18.170Z,25.79
2023-06-04T16:13:47.028Z,25.81
2023-06-04T16:16:15.555Z,25.84
2023-06-04T16:18:44.021Z,25.88
2023-06-04T16:21:12.516Z,25.89
2023-06-04T16:23:41.209Z,25.89
2023-06-04T16:26:10.393Z,25.89
2023-06-04T16:28:40.917Z,25.97
2023-06-04T16:31:09.755Z,26.03
2023-06-04T16:33:38.645Z,26.13
2023-06-04T16:36:08.162Z,26.25
2023-06-04T16:38:37.656Z,26.36
2023-06-04T16:41:06.108Z,26.48
2023-06-04T16:43:34.651Z,26.58
2023-06-04T16:46:04.508Z,26.67
2023-06-04T16:48:33.098Z,26.73
2023-06-04T16:51:01.580Z,26.81
2023-06-04T16:53:31.122Z,26.91
2023-06-04T16:55:59.582Z,27.00
2023-06-04T16:58:28.112Z,27.14
2023-06-04T17:00:57.186Z,27.25
2023-06-04T17:03:27.796Z,27.33
2023-06-04T17:05:56.383Z,27.38
2023-06-04T17:08:25.379Z,27.41
2023-06-04T17:10:54.627Z,27.42
2023-06-04T17:13:23.070Z,27.50
2023-06-04T17:15:53.058Z,27.59
2023-06-04T17:18:21.728Z,27.63
2023-06-04T17:20:52.243Z,27.63
2023-06-04T17:23:25.688Z,27.60
2023-06-04T17:25:55.143Z,27.52
2023-06-04T17:28:24.070Z,27.37
2023-06-04T17:30:52.969Z,27.27
2023-06-04T17:33:21.502Z,27.13
2023-06-04T17:35:51.937Z,26.93
2023-06-04T17:38:20.374Z,26.82
2023-06-04T17:40:48.852Z,26.70
2023-06-04T17:43:18.084Z,26.51
2023-06-04T17:45:46.557Z,26.32
2023-06-04T17:48:15.135Z,26.24
2023-06-04T17:50:44.408Z,26.12
2023-06-04T17:53:14.324Z,25.98
2023-06-04T17:55:45.736Z,25.83
2023-06-04T17:58:14.431Z,25.71
2023-06-04T18:00:43.217Z,25.59
2023-06-04T18:03:13.476Z,25.46
2023-06-04T18:05:43.267Z,25.40
2023-06-04T18:08:13.943Z,25.29
2023-06-04T18:10:43.370Z,25.21
2023-06-04T18:13:14.724Z,25.05
2023-06-04T18:15:44.187Z,24.97
2023-06-04T18:18:12.625Z,24.80
2023-06-04T18:20:42.029Z,24.77
2023-06-04T18:23:13.318Z,24.60
2023-06-04T18:25:43.357Z,24.57
2023-06-04T18:28:11.908Z,24.52
2023-06-04T18:30:41.271Z,24.48
2023-06-04T18:33:10.018Z,24.42
2023-06-04T18:35:38.547Z,24.29
2023-06-04T18:38:07.853Z,24.17
2023-06-04T18:40:37.374Z,24.12
2023-06-04T18:43:07.269Z,24.04
2023-06-04T18:45:36.104Z,23.99
2023-06-04T18:48:04.865Z,23.92
2023-06-04T18:50:34.006Z,23.76
2023-06-04T18:53:02.853Z,23.63
2023-06-04T18:55:31.417Z,23.61
2023-06-04T18:57:59.939Z,23.55
2023-06-04T19:00:29.879Z,23.43
2023-06-04T19:02:58.475Z,23.34
2023-06-04T19:05:28.793Z,23.24
2023-06-04T19:07:57.337Z,23.21
2023-06-04T19:10:26.359Z,23.10
2023-06-04T19:12:57.641Z,23.04
2023-06-04T19:15:27.652Z,22.97
2023-06-04T19:18:02.916Z,22.77
2023-06-04T19:20:31.458Z,22.71
2023-06-04T19:23:00.054Z,22.68
2023-06-04T19:25:28.648Z,22.57
2023-06-04T19:27:57.093Z,22.49
2023-06-04T19:30:25.584Z,22.40
2023-06-04T19:32:54.400Z,22.33
2023-06-04T19:35:24.502Z,22.23
2023-06-04T19:37:52.968Z,22.15
2023-06-04T19:40:21.598Z,22.05
2023-06-04T19:42:50.080Z,21.96
2023-06-04T19:45:19.822Z,21.87
2023-06-04T19:47:48.523Z,21.84
2023-06-04T19:50:17.045Z,21.72
2023-06-04T19:52:47.224Z,21.69
2023-06-04T19:55:16.217Z,21.61
2023-06-04T19:57:45.525Z,21.54
2023-06-04T20:00:14.756Z,21.45
2023-06-04T20:02:43.398Z,21.38
2023-06-04T20:05:12.882Z,21.28
2023-06-04T20:07:42.048Z,21.21
2023-06-04T20:10:12.578Z,21.10
2023-06-04T20:12:41.136Z,21.00
2023-06-04T20:15:12.313Z,20.92
2023-06-04T20:17:40.907Z,20.86
2023-06-04T20:20:10.732Z,20.78
2023-06-04T20:22:40.345Z,20.66
2023-06-04T20:25:09.583Z,20.63
2023-06-04T20:27:39.379Z,20.51
2023-06-04T20:30:09.704Z,20.45
2023-06-04T20:32:38.343Z,20.37
2023-06-04T20:35:10.267Z,20.28
2023-06-04T20:37:40.373Z,20.21
2023-06-04T20:40:10.028Z,20.12
2023-06-04T20:42:53.171Z,20.04
2023-06-04T20:45:21.762Z,19.95
2023-06-04T20:47:50.434Z,19.86
2023-06-04T20:50:18.954Z,19.78
2023-06-04T20:52:47.420Z,19.60
2023-06-04T20:55:17.793Z,19.55
2023-06-04T20:57:47.632Z,19.55
2023-06-04T21:00:17.732Z,19.50
2023-06-04T21:02:46.503Z,19.41
2023-06-04T21:05:15.084Z,19.30
2023-06-04T21:07:44.191Z,19.20
2023-06-04T21:10:13.401Z,19.14
2023-06-04T21:12:41.872Z,19.04
2023-06-04T21:15:12.651Z,18.94
2023-06-04T21:17:41.169Z,18.86
2023-06-04T21:20:11.700Z,18.80
2023-06-04T21:22:40.184Z,18.74
2023-06-04T21:25:09.814Z,18.65
2023-06-04T21:27:38.512Z,18.55
2023-06-04T21:30:08.708Z,18.47
2023-06-04T21:32:39.017Z,18.44
2023-06-04T21:35:08.852Z,18.42
2023-06-04T21:37:38.025Z,18.33
2023-06-04T21:40:08.324Z,18.25
2023-06-04T21:42:37.293Z,18.17
2023-06-04T21:45:08.330Z,18.14
2023-06-04T21:47:38.731Z,18.08
2023-06-04T21:50:08.384Z,18.04
2023-06-04T21:52:37.013Z,18.00
2023-06-04T21:55:06.605Z,17.91
2023-06-04T21:57:36.258Z,17.82
2023-06-04T22:00:07.008Z,17.75
2023-06-04T22:02:36.340Z,17.68
2023-06-04T22:05:07.692Z,17.63
2023-06-04T22:07:36.607Z,17.58
2023-06-04T22:10:07.060Z,17.54
2023-06-04T22:12:36.024Z,17.48
2023-06-04T22:15:05.994Z,17.43
2023-06-04T22:17:34.539Z,17.37
2023-06-04T22:20:03.146Z,17.31
2023-06-04T22:22:33.629Z,17.25
2023-06-04T22:25:02.123Z,17.19
2023-06-04T22:27:31.034Z,17.16
2023-06-04T22:29:59.458Z,17.12
2023-06-04T22:32:27.975Z,17.08
2023-06-04T22:34:56.430Z,17.00
2023-06-04T22:37:24.893Z,16.94
2023-06-04T22:39:55.137Z,16.85
2023-06-04T22:42:24.113Z,16.80
2023-06-04T22:44:54.603Z,16.72
2023-06-04T22:47:23.111Z,16.69
2023-06-04T22:49:51.643Z,16.62
2023-06-04T22:52:21.104Z,16.53
2023-06-04T22:54:49.680Z,16.47
2023-06-04T22:57:20.522Z,16.42
2023-06-04T22:59:49.524Z,16.40
2023-06-04T23:02:18.594Z,16.37
2023-06-04T23:04:47.668Z,16.31
2023-06-04T23:07:16.293Z,16.26
2023-06-04T23:09:44.830Z,16.21
2023-06-04T23:12:13.396Z,16.18
2023-06-04T23:14:43.851Z,16.14
2023-06-04T23:17:12.335Z,16.10
2023-06-04T23:19:41.373Z,16.07
2023-06-04T23:22:09.869Z,16.03
2023-06-04T23:24:38.470Z,15.93
2023-06-04T23:27:07.512Z,15.91
2023-06-04T23:29:36.628Z,15.89
2023-06-04T23:32:07.494Z,15.86
2023-06-04T23:34:36.572Z,15.83
2023-06-04T23:37:05.141Z,15.78
2023-06-04T23:39:33.609Z,15.67
2023-06-04T23:42:02.223Z,15.59
2023-06-04T23:44:30.688Z,15.52
2023-06-04T23:46:59.210Z,15.49
2023-06-04T23:49:30.125Z,15.46
2023-06-04T23:51:58.576Z,15.42
2023-06-04T23:54:27.149Z,15.40
2023-06-04T23:56:56.285Z,15.36
2023-06-04T23:59:24.824Z,15.33
